Funchalense 5 — CSKN — position and weather

sailwx.info

Track history (hours):
 
Tides and Currents Weather Stations Pressure Air Temp Water Temp Dewpoint Dewpoint Depression Visibility Wind Speed Wind Dir Waves Ship Positions

Funchalense 5

Last reported at 2014-Sep-14 02:22 UTC. Time now 2014-Sep-16 19:30 UTC.
Position N 38°30' W 009°32'.

Length 127 m; draft 7.7 m.

Type: Ship. MMSI: 255804250.

Date/timePositionNaut miles runAvg speedWind from/ knotsBaromVisibWave heightAir tempDewpointWater temp
2014-Sep-14 02:22N 38°30' W 009°32'1316.6
2014-Sep-14 01:33N 38°40' W 009°19'11 2.8
2014-Sep-13 21:32N 38°44' W 009°06'0 0.0
2014-Sep-13 20:32N 38°44' W 009°06'0 0.0
2014-Sep-13 19:32N 38°44' W 009°06'0 0.0
2014-Sep-13 18:31N 38°44' W 009°06'0 0.0
2014-Sep-13 17:31N 38°44' W 009°06'0 0.0
2014-Sep-13 16:33N 38°44' W 009°06'0 0.0
2014-Sep-13 15:33N 38°44' W 009°06'0 0.0
2014-Sep-13 14:32N 38°44' W 009°06'0 0.0
2014-Sep-13 13:32N 38°44' W 009°06'0 0.0
2014-Sep-13 12:32N 38°44' W 009°06'0 0.1
2014-Sep-13 11:33N 38°44' W 009°06'8 8.3
2014-Sep-13 10:34N 38°41' W 009°16'  
2014-Sep-06 21:33N 38°33' W 009°28'1514.8
2014-Sep-06 20:33N 38°41' W 009°12'5 5.4
2014-Sep-06 19:32N 38°44' W 009°06'0 0.1
2014-Sep-06 18:32N 38°44' W 009°06'0 0.0
2014-Sep-06 17:29N 38°44' W 009°06'0 0.0
2014-Sep-06 16:31N 38°44' W 009°06'0 0.0
2014-Sep-06 15:33N 38°44' W 009°06'0 0.0
2014-Sep-06 14:30N 38°44' W 009°06'0 0.0
2014-Sep-06 13:33N 38°44' W 009°06'0 0.0
2014-Sep-06 12:32N 38°44' W 009°06'0 0.0
2014-Sep-06 11:32N 38°44' W 009°06'0 0.0
2014-Sep-06 10:32N 38°44' W 009°06'0 0.0
2014-Sep-06 09:31N 38°44' W 009°06'0 0.0
2014-Sep-06 08:31N 38°44' W 009°06'0 0.0
2014-Sep-06 07:33N 38°44' W 009°06'0 0.0
2014-Sep-06 06:34N 38°44' W 009°06'1010.3
2014-Sep-06 05:34N 38°40' W 009°18'  
Track history (hours):
 
Tides and Currents Weather Stations Pressure Air Temp Water Temp Dewpoint Dewpoint Depression Visibility Wind Speed Wind Dir Waves Ship Positions

Funchalense 5

Last reported at 2014-Sep-14 02:22 UTC. Time now 2014-Sep-16 19:30 UTC.
Position N 38°30' W 009°32'.

Length 127 m; draft 7.7 m.

Type: Ship. MMSI: 255804250.

Date/timePositionNaut miles runAvg speedWind from/ knotsBaromVisibWave heightAir tempDewpointWater temp
2014-Sep-14 02:22N 38°30' W 009°32'1316.6
2014-Sep-14 01:33N 38°40' W 009°19'11 2.8
2014-Sep-13 21:32N 38°44' W 009°06'0 0.0
2014-Sep-13 20:32N 38°44' W 009°06'0 0.0
2014-Sep-13 19:32N 38°44' W 009°06'0 0.0
2014-Sep-13 18:31N 38°44' W 009°06'0 0.0
2014-Sep-13 17:31N 38°44' W 009°06'0 0.0
2014-Sep-13 16:33N 38°44' W 009°06'0 0.0
2014-Sep-13 15:33N 38°44' W 009°06'0 0.0
2014-Sep-13 14:32N 38°44' W 009°06'0 0.0
2014-Sep-13 13:32N 38°44' W 009°06'0 0.0
2014-Sep-13 12:32N 38°44' W 009°06'0 0.1
2014-Sep-13 11:33N 38°44' W 009°06'8 8.3
2014-Sep-13 10:34N 38°41' W 009°16'  
2014-Sep-06 21:33N 38°33' W 009°28'1514.8
2014-Sep-06 20:33N 38°41' W 009°12'5 5.4
2014-Sep-06 19:32N 38°44' W 009°06'0 0.1
2014-Sep-06 18:32N 38°44' W 009°06'0 0.0
2014-Sep-06 17:29N 38°44' W 009°06'0 0.0
2014-Sep-06 16:31N 38°44' W 009°06'0 0.0
2014-Sep-06 15:33N 38°44' W 009°06'0 0.0
2014-Sep-06 14:30N 38°44' W 009°06'0 0.0
2014-Sep-06 13:33N 38°44' W 009°06'0 0.0
2014-Sep-06 12:32N 38°44' W 009°06'0 0.0
2014-Sep-06 11:32N 38°44' W 009°06'0 0.0
2014-Sep-06 10:32N 38°44' W 009°06'0 0.0
2014-Sep-06 09:31N 38°44' W 009°06'0 0.0
2014-Sep-06 08:31N 38°44' W 009°06'0 0.0
2014-Sep-06 07:33N 38°44' W 009°06'0 0.0
2014-Sep-06 06:34N 38°44' W 009°06'1010.3
2014-Sep-06 05:34N 38°40' W 009°18'  

Dump ship's entire track history